createdAt,value
2018-05-06T00:01:05.529Z,5.50
2018-05-06T00:03:34.854Z,5.57
2018-05-06T00:06:04.495Z,5.67
2018-05-06T00:08:33.867Z,6.00
2018-05-06T00:11:03.610Z,5.60
2018-05-06T00:13:33.245Z,5.83
2018-05-06T00:16:02.641Z,5.73
2018-05-06T00:18:32.037Z,5.10
2018-05-06T00:21:01.684Z,5.30
2018-05-06T00:23:31.369Z,5.47
2018-05-06T00:26:01.038Z,5.83
2018-05-06T00:28:30.671Z,6.00
2018-05-06T00:31:00.295Z,6.00
2018-05-06T00:33:29.948Z,5.67
2018-05-06T00:35:59.813Z,5.27
2018-05-06T00:38:29.452Z,5.60
2018-05-06T00:40:59.098Z,5.60
2018-05-06T00:43:28.718Z,5.43
2018-05-06T00:45:58.404Z,5.83
2018-05-06T00:48:28.073Z,5.80
2018-05-06T00:50:57.717Z,5.97
2018-05-06T00:53:27.344Z,5.93
2018-05-06T00:55:56.977Z,5.77
2018-05-06T00:58:26.605Z,6.50
2018-05-06T01:00:56.284Z,5.90
2018-05-06T01:03:25.908Z,6.17
2018-05-06T01:05:55.304Z,7.17
2018-05-06T01:08:24.646Z,7.50
2018-05-06T01:10:54.032Z,7.70
2018-05-06T01:13:23.709Z,8.13
2018-05-06T01:15:53.325Z,8.23
2018-05-06T01:18:22.955Z,8.77
2018-05-06T01:20:52.575Z,8.03
2018-05-06T01:23:22.214Z,9.20
2018-05-06T01:25:51.887Z,9.07
2018-05-06T01:28:21.379Z,9.13
2018-05-06T01:30:51.009Z,9.63
2018-05-06T01:33:20.652Z,9.60
2018-05-06T01:35:50.282Z,9.00
2018-05-06T01:38:19.957Z,9.13
2018-05-06T01:40:49.595Z,10.73
2018-05-06T01:43:19.543Z,10.80
2018-05-06T01:45:49.183Z,10.63
2018-05-06T01:48:18.827Z,10.17
2018-05-06T01:50:48.504Z,10.73
2018-05-06T01:53:18.135Z,9.73
2018-05-06T01:55:47.551Z,10.70
2018-05-06T01:58:17.183Z,9.33
2018-05-06T02:00:46.821Z,10.20
2018-05-06T02:03:16.494Z,10.00
2018-05-06T02:05:46.117Z,10.07
2018-05-06T02:08:15.752Z,9.73
2018-05-06T02:10:45.396Z,10.57
2018-05-06T02:13:15.023Z,10.33
2018-05-06T02:15:44.699Z,9.93
2018-05-06T02:18:14.465Z,9.97
2018-05-06T02:20:44.082Z,9.93
2018-05-06T02:23:13.717Z,10.53
2018-05-06T02:25:43.580Z,9.90
2018-05-06T02:28:13.248Z,9.17
2018-05-06T02:30:42.933Z,9.50
2018-05-06T02:33:12.567Z,9.33
2018-05-06T02:35:42.346Z,9.30
2018-05-06T02:38:12.020Z,9.63
2018-05-06T02:40:41.422Z,9.83
2018-05-06T02:43:11.061Z,9.23
2018-05-06T02:45:41.447Z,8.97
2018-05-06T02:48:11.073Z,8.77
2018-05-06T02:50:40.703Z,8.63
2018-05-06T02:53:10.370Z,9.00
2018-05-06T02:55:39.993Z,8.73
2018-05-06T02:58:09.642Z,7.90
2018-05-06T03:00:39.259Z,8.00
2018-05-06T03:03:08.714Z,8.50
2018-05-06T03:05:38.322Z,8.27
2018-05-06T03:08:07.942Z,8.30
2018-05-06T03:10:38.430Z,8.40
2018-05-06T03:13:08.051Z,8.47
2018-05-06T03:15:37.666Z,8.50
2018-05-06T03:18:07.408Z,7.87
2018-05-06T03:20:37.026Z,8.30
2018-05-06T03:23:06.722Z,7.93
2018-05-06T03:25:36.351Z,7.13
2018-05-06T03:28:05.982Z,7.30
2018-05-06T03:30:35.647Z,7.57
2018-05-06T03:33:05.276Z,7.13
2018-05-06T03:35:34.912Z,6.80
2018-05-06T03:38:04.538Z,7.40
2018-05-06T03:40:34.177Z,7.53
2018-05-06T03:43:03.630Z,7.33
2018-05-06T03:45:33.290Z,6.93
2018-05-06T03:48:03.024Z,7.30
2018-05-06T03:50:32.666Z,6.90
2018-05-06T03:53:02.309Z,6.60
2018-05-06T03:55:31.979Z,6.20
2018-05-06T03:58:12.543Z,6.60
2018-05-06T04:00:46.172Z,6.27
2018-05-06T04:03:15.620Z,6.57
2018-05-06T04:05:45.090Z,7.23
2018-05-06T04:08:14.907Z,7.13
2018-05-06T04:10:44.558Z,7.77
2018-05-06T04:13:14.250Z,7.03
2018-05-06T04:15:43.886Z,6.30
2018-05-06T04:18:13.506Z,6.43
2018-05-06T04:20:43.122Z,6.80
2018-05-06T04:23:12.750Z,6.77
2018-05-06T04:25:42.418Z,6.63
2018-05-06T04:28:12.070Z,6.17
2018-05-06T04:30:41.478Z,6.23
2018-05-06T04:33:11.115Z,6.23
2018-05-06T04:35:40.458Z,5.10
2018-05-06T04:38:10.134Z,6.17
2018-05-06T04:40:39.751Z,5.17
2018-05-06T04:43:09.383Z,5.40
2018-05-06T04:45:39.007Z,5.20
2018-05-06T04:48:08.618Z,5.40
2018-05-06T04:50:38.287Z,5.47
2018-05-06T04:53:07.908Z,6.23
2018-05-06T04:55:37.299Z,5.40
2018-05-06T04:58:06.936Z,5.33
2018-05-06T05:00:36.572Z,4.70
2018-05-06T05:03:06.244Z,5.07
2018-05-06T05:05:36.387Z,4.97
2018-05-06T05:08:06.045Z,4.83
2018-05-06T05:10:35.682Z,4.63
2018-05-06T05:13:05.297Z,4.57
2018-05-06T05:15:34.972Z,4.40
2018-05-06T05:18:04.622Z,4.57
2018-05-06T05:20:34.009Z,3.87
2018-05-06T05:23:03.630Z,3.97
2018-05-06T05:25:33.254Z,4.10
2018-05-06T05:28:02.944Z,4.20
2018-05-06T05:30:32.804Z,3.87
2018-05-06T05:33:02.456Z,3.23
2018-05-06T05:35:32.070Z,3.57
2018-05-06T05:38:01.715Z,3.73
2018-05-06T05:40:31.380Z,3.30
2018-05-06T05:43:01.012Z,3.60
2018-05-06T05:45:30.407Z,3.87
2018-05-06T05:48:00.040Z,3.70
2018-05-06T05:50:29.663Z,3.63
2018-05-06T05:52:59.340Z,3.50
2018-05-06T05:55:29.298Z,2.90
2018-05-06T05:57:59.091Z,3.70
2018-05-06T06:00:28.476Z,3.70
2018-05-06T06:02:58.086Z,3.97
2018-05-06T06:05:27.755Z,3.53
2018-05-06T06:07:57.159Z,3.40
2018-05-06T06:10:26.770Z,3.80
2018-05-06T06:12:56.387Z,3.60
2018-05-06T06:15:26.013Z,3.00
2018-05-06T06:17:55.674Z,3.43
2018-05-06T06:20:25.302Z,4.00
2018-05-06T06:22:54.939Z,3.67
2018-05-06T06:25:24.559Z,3.60
2018-05-06T06:27:54.196Z,3.03
2018-05-06T06:30:23.914Z,3.40
2018-05-06T06:32:53.615Z,3.07
2018-05-06T06:35:23.413Z,3.43
2018-05-06T06:37:53.044Z,2.97
2018-05-06T06:40:22.772Z,3.50
2018-05-06T06:42:52.451Z,3.50
2018-05-06T06:45:22.103Z,3.07
2018-05-06T06:47:51.781Z,3.60
2018-05-06T06:50:21.415Z,3.30
2018-05-06T06:52:51.040Z,3.40
2018-05-06T06:55:20.435Z,3.17
2018-05-06T06:57:49.827Z,3.37
2018-05-06T07:00:19.488Z,3.30
2018-05-06T07:02:49.112Z,3.27
2018-05-06T07:05:18.747Z,2.80
2018-05-06T07:07:48.392Z,3.13
2018-05-06T07:10:18.019Z,2.93
2018-05-06T07:12:47.691Z,3.17
2018-05-06T07:15:17.652Z,2.80
2018-05-06T07:17:47.885Z,2.70
2018-05-06T07:20:17.814Z,3.53
2018-05-06T07:22:48.048Z,2.62
2018-05-06T07:25:18.394Z,2.42
2018-05-06T07:27:48.604Z,2.83
2018-05-06T07:30:18.883Z,2.33
2018-05-06T07:32:49.088Z,2.40
2018-05-06T07:35:19.371Z,2.40
2018-05-06T07:37:49.569Z,2.53
2018-05-06T07:40:19.801Z,2.62
2018-05-06T07:42:50.032Z,3.00
2018-05-06T07:45:19.664Z,2.78
2018-05-06T07:47:49.405Z,3.00
2018-05-06T07:50:19.048Z,3.40
2018-05-06T07:52:50.671Z,2.85
2018-05-06T07:55:22.383Z,2.65
2018-05-06T07:57:52.649Z,2.90
2018-05-06T08:00:23.022Z,3.03
2018-05-06T08:02:53.275Z,2.37
2018-05-06T08:05:23.479Z,2.42
2018-05-06T08:07:53.707Z,2.65
2018-05-06T08:10:23.914Z,2.28
2018-05-06T08:12:53.846Z,2.62
2018-05-06T08:15:24.090Z,2.30
2018-05-06T08:17:54.306Z,2.35
2018-05-06T08:20:24.546Z,2.08
2018-05-06T08:22:54.759Z,2.05
2018-05-06T08:25:25.128Z,2.12
2018-05-06T08:27:55.367Z,2.22
2018-05-06T08:30:25.557Z,1.85
2018-05-06T08:32:55.532Z,2.20
2018-05-06T08:35:25.786Z,1.90
2018-05-06T08:37:55.997Z,1.87
2018-05-06T08:40:26.252Z,2.20
2018-05-06T08:42:56.661Z,1.90
2018-05-06T08:45:26.900Z,1.80
2018-05-06T08:47:57.102Z,2.00
2018-05-06T08:52:51.912Z,2.08
2018-05-06T08:55:22.110Z,2.10
2018-05-06T08:57:52.352Z,1.98
2018-05-06T09:00:22.590Z,2.45
2018-05-06T09:02:53.069Z,2.50
2018-05-06T09:05:23.279Z,2.72
2018-05-06T09:07:52.942Z,2.80
2018-05-06T09:10:22.228Z,2.60
2018-05-06T09:12:51.843Z,2.90
2018-05-06T09:15:21.499Z,2.83
2018-05-06T09:17:51.120Z,2.67
2018-05-06T09:20:20.739Z,2.97
2018-05-06T09:22:50.377Z,2.90
2018-05-06T09:25:20.216Z,2.73
2018-05-06T09:27:49.931Z,2.63
2018-05-06T09:30:19.556Z,2.63
2018-05-06T09:32:49.190Z,2.70
2018-05-06T09:35:18.853Z,2.60
2018-05-06T09:37:48.546Z,2.60
2018-05-06T09:40:18.360Z,2.73
2018-05-06T09:42:47.990Z,2.50
2018-05-06T09:45:17.640Z,2.97
2018-05-06T09:47:47.324Z,2.80
2018-05-06T09:50:17.156Z,2.40
2018-05-06T09:52:46.819Z,2.10
2018-05-06T09:55:16.449Z,2.50
2018-05-06T09:57:45.802Z,2.30
2018-05-06T10:00:15.414Z,2.50
2018-05-06T10:02:45.039Z,2.10
2018-05-06T10:05:14.698Z,2.10
2018-05-06T10:07:44.327Z,2.20
2018-05-06T10:10:13.991Z,2.30
2018-05-06T10:12:43.615Z,2.13
2018-05-06T10:15:13.230Z,2.20
2018-05-06T10:17:42.912Z,2.30
2018-05-06T10:20:12.565Z,2.03
2018-05-06T10:22:42.181Z,1.80
2018-05-06T10:25:11.811Z,2.17
2018-05-06T10:27:41.456Z,2.17
2018-05-06T10:30:11.989Z,1.90
2018-05-06T10:32:41.613Z,2.10
2018-05-06T10:35:11.251Z,2.20
2018-05-06T10:37:40.899Z,2.10
2018-05-06T10:40:10.526Z,1.90
2018-05-06T10:42:40.204Z,1.70
2018-05-06T10:45:09.840Z,1.77
2018-05-06T10:47:39.476Z,1.67
2018-05-06T10:50:09.120Z,1.40
2018-05-06T10:52:38.984Z,1.80
2018-05-06T10:55:08.648Z,1.80
2018-05-06T10:57:38.400Z,1.70
2018-05-06T11:00:08.041Z,1.77
2018-05-06T11:02:37.672Z,1.70
2018-05-06T11:05:07.318Z,1.90
2018-05-06T11:07:37.030Z,1.80
2018-05-06T11:10:06.736Z,1.90
2018-05-06T11:12:36.608Z,1.97
2018-05-06T11:15:06.264Z,1.60
2018-05-06T11:17:35.896Z,1.60
2018-05-06T11:20:05.579Z,1.70
2018-05-06T11:22:35.210Z,1.63
2018-05-06T11:25:04.857Z,1.83
2018-05-06T11:27:34.541Z,1.60
2018-05-06T11:30:03.594Z,2.17
2018-05-06T11:32:33.259Z,1.60
2018-05-06T11:35:03.395Z,2.00
2018-05-06T11:37:33.050Z,1.70
2018-05-06T11:40:02.720Z,1.93
2018-05-06T11:42:32.371Z,1.80
2018-05-06T11:45:02.020Z,1.60
2018-05-06T11:47:31.692Z,1.53
2018-05-06T11:50:01.362Z,2.03
2018-05-06T11:52:30.990Z,1.60
2018-05-06T11:55:00.642Z,1.93
2018-05-06T11:57:30.438Z,1.60
2018-05-06T12:00:00.070Z,1.70
2018-05-06T12:02:29.779Z,2.03
2018-05-06T12:04:59.471Z,2.00
2018-05-06T12:07:29.115Z,1.80
2018-05-06T12:09:58.842Z,1.50
2018-05-06T12:12:28.847Z,1.40
2018-05-06T12:14:58.527Z,1.57
2018-05-06T12:17:28.171Z,1.53
2018-05-06T12:19:57.796Z,1.40
2018-05-06T12:22:27.435Z,1.17
2018-05-06T12:24:57.093Z,1.70
2018-05-06T12:27:26.761Z,1.33
2018-05-06T12:29:56.392Z,1.30
2018-05-06T12:32:26.032Z,1.97
2018-05-06T12:34:55.660Z,1.87
2018-05-06T12:37:25.289Z,1.30
2018-05-06T12:39:54.958Z,1.30
2018-05-06T12:42:24.361Z,1.80
2018-05-06T12:44:53.998Z,1.77
2018-05-06T12:47:23.386Z,1.50
2018-05-06T12:49:53.012Z,1.40
2018-05-06T12:52:22.680Z,1.50
2018-05-06T12:54:52.305Z,1.80
2018-05-06T12:57:21.941Z,1.43
2018-05-06T12:59:51.566Z,1.90
2018-05-06T13:02:21.281Z,1.40
2018-05-06T13:04:51.109Z,1.50
2018-05-06T13:07:20.748Z,1.50
2018-05-06T13:09:50.396Z,1.80
2018-05-06T13:12:20.024Z,1.57
2018-05-06T13:14:49.652Z,1.70
2018-05-06T13:17:19.329Z,1.40
2018-05-06T13:19:48.949Z,1.70
2018-05-06T13:22:18.588Z,1.40
2018-05-06T13:24:48.284Z,1.40
2018-05-06T13:27:17.908Z,1.50
2018-05-06T13:29:47.623Z,1.80
2018-05-06T13:32:17.247Z,1.50
2018-05-06T13:34:46.868Z,1.43
2018-05-06T13:37:16.286Z,1.43
2018-05-06T13:39:45.914Z,1.40
2018-05-06T13:42:15.632Z,1.80
2018-05-06T13:44:45.274Z,1.40
2018-05-06T13:47:14.667Z,1.30
2018-05-06T13:49:44.337Z,1.40
2018-05-06T13:52:14.145Z,1.37
2018-05-06T13:54:43.825Z,1.20
2018-05-06T13:57:13.209Z,1.50
2018-05-06T13:59:42.853Z,1.40
2018-05-06T14:02:12.483Z,1.30
2018-05-06T14:04:42.111Z,1.30
2018-05-06T14:07:11.802Z,1.23
2018-05-06T14:09:41.671Z,1.23
2018-05-06T14:12:11.316Z,1.20
2018-05-06T14:14:40.934Z,1.60
2018-05-06T14:17:10.565Z,1.73
2018-05-06T14:19:40.227Z,1.30
2018-05-06T14:22:09.847Z,1.40
2018-05-06T14:24:39.190Z,1.57
2018-05-06T14:27:08.497Z,1.40
2018-05-06T14:29:38.119Z,1.57
2018-05-06T14:32:07.782Z,1.50
2018-05-06T14:34:37.175Z,1.63
2018-05-06T14:37:06.557Z,1.40
2018-05-06T14:39:36.392Z,1.30
2018-05-06T14:42:06.215Z,1.47
2018-05-06T14:44:35.886Z,1.30
2018-05-06T14:47:16.489Z,1.43
2018-05-06T14:49:45.885Z,1.47
2018-05-06T14:52:15.524Z,1.40
2018-05-06T14:54:45.185Z,1.67
2018-05-06T14:57:14.810Z,1.37
2018-05-06T14:59:44.629Z,1.80
2018-05-06T15:02:14.467Z,1.40
2018-05-06T15:04:44.087Z,1.70
2018-05-06T15:07:13.754Z,1.40
2018-05-06T15:09:43.378Z,2.27
2018-05-06T15:12:15.846Z,1.40
2018-05-06T15:14:45.505Z,1.57
2018-05-06T15:17:15.148Z,2.70
2018-05-06T15:19:44.789Z,6.50
2018-05-06T15:22:14.410Z,1.80
2018-05-06T15:24:44.030Z,1.67
2018-05-06T15:27:13.709Z,1.73
2018-05-06T15:29:42.391Z,2.37
2018-05-06T15:32:11.783Z,1.80
2018-05-06T15:34:41.413Z,1.53
2018-05-06T15:37:11.044Z,1.80
2018-05-06T15:39:40.719Z,1.57
2018-05-06T15:42:10.348Z,1.70
2018-05-06T15:44:40.017Z,1.70
2018-05-06T15:47:09.634Z,1.63
2018-05-06T15:49:39.256Z,1.60
2018-05-06T15:52:08.890Z,2.03
2018-05-06T15:54:38.517Z,1.33
2018-05-06T15:57:08.175Z,1.93
2018-05-06T15:59:37.809Z,1.90
2018-05-06T16:05:21.120Z,1.50
2018-05-06T16:07:50.813Z,1.50
2018-05-06T16:10:20.458Z,1.50
2018-05-06T16:12:49.760Z,1.47
2018-05-06T16:15:19.163Z,1.70
2018-05-06T16:17:48.596Z,1.70
2018-05-06T16:20:18.467Z,1.60
2018-05-06T16:22:48.114Z,1.73
2018-05-06T16:25:17.768Z,1.70
2018-05-06T16:27:47.404Z,3.27
2018-05-06T16:30:17.057Z,1.90
2018-05-06T16:32:46.732Z,1.60
2018-05-06T16:35:16.388Z,1.53
2018-05-06T16:37:46.061Z,1.70
2018-05-06T16:40:15.680Z,1.70
2018-05-06T16:42:45.069Z,1.37
2018-05-06T16:45:14.510Z,1.70
2018-05-06T16:47:44.140Z,1.57
2018-05-06T16:50:13.778Z,1.90
2018-05-06T16:52:43.531Z,2.07
2018-05-06T16:55:13.313Z,1.60
2018-05-06T16:57:42.980Z,1.77
2018-05-06T17:00:12.600Z,1.73
2018-05-06T17:02:42.240Z,2.03
2018-05-06T17:05:11.855Z,2.70
2018-05-06T17:07:41.480Z,2.43
2018-05-06T17:10:11.305Z,2.07
2018-05-06T17:12:40.963Z,2.53
2018-05-06T17:15:10.650Z,2.50
2018-05-06T17:17:40.326Z,2.13
2018-05-06T17:20:12.566Z,2.67
2018-05-06T17:22:42.229Z,3.03
2018-05-06T17:25:11.846Z,2.63
2018-05-06T17:27:41.327Z,2.30
2018-05-06T17:30:11.020Z,2.30
2018-05-06T17:32:40.643Z,2.37
2018-05-06T17:35:09.992Z,2.10
2018-05-06T17:37:39.623Z,1.80
2018-05-06T17:40:09.237Z,1.90
2018-05-06T17:42:38.880Z,2.13
2018-05-06T17:45:08.542Z,1.80
2018-05-06T17:47:38.239Z,1.93
2018-05-06T17:50:07.881Z,1.90
2018-05-06T17:52:37.314Z,2.50
2018-05-06T17:55:06.990Z,2.10
2018-05-06T17:57:36.619Z,2.20
2018-05-06T18:00:07.123Z,2.00
2018-05-06T18:02:36.755Z,2.50
2018-05-06T18:05:06.414Z,2.20
2018-05-06T18:07:36.129Z,2.30
2018-05-06T18:10:05.590Z,2.77
2018-05-06T18:12:35.030Z,2.90
2018-05-06T18:15:04.465Z,2.13
2018-05-06T18:17:34.109Z,2.07
2018-05-06T18:20:03.753Z,2.27
2018-05-06T18:22:33.429Z,3.10
2018-05-06T18:25:03.302Z,2.90
2018-05-06T18:27:32.947Z,3.60
2018-05-06T18:30:02.349Z,3.40
2018-05-06T18:32:31.980Z,3.00
2018-05-06T18:35:01.595Z,3.60
2018-05-06T18:37:31.294Z,3.23
2018-05-06T18:40:00.705Z,3.57
2018-05-06T18:42:32.775Z,3.53
2018-05-06T18:45:02.414Z,3.93
2018-05-06T18:47:32.045Z,3.60
2018-05-06T18:50:01.697Z,3.20
2018-05-06T18:52:31.328Z,3.13
2018-05-06T18:55:00.990Z,3.53
2018-05-06T18:57:30.643Z,3.80
2018-05-06T19:00:00.316Z,4.63
2018-05-06T19:02:29.949Z,4.10
2018-05-06T19:04:59.573Z,4.17
2018-05-06T19:07:28.972Z,4.43
2018-05-06T19:09:58.609Z,4.60
2018-05-06T19:12:28.260Z,4.97
2018-05-06T19:14:57.900Z,4.70
2018-05-06T19:17:27.545Z,5.47
2018-05-06T19:19:57.223Z,5.37
2018-05-06T19:22:26.874Z,5.50
2018-05-06T19:24:56.498Z,5.63
2018-05-06T19:27:26.116Z,5.70
2018-05-06T19:29:55.737Z,5.90
2018-05-06T19:32:25.408Z,6.83
2018-05-06T19:34:55.057Z,6.03
2018-05-06T19:37:24.404Z,7.17
2018-05-06T19:39:54.036Z,7.27
2018-05-06T19:42:23.392Z,8.67
2018-05-06T19:44:53.073Z,8.13
2018-05-06T19:47:22.711Z,7.33
2018-05-06T19:49:52.343Z,6.93
2018-05-06T19:52:21.984Z,5.97
2018-05-06T19:54:51.336Z,5.73
2018-05-06T19:57:20.998Z,5.60
2018-05-06T19:59:50.651Z,5.37
2018-05-06T20:02:20.276Z,5.13
2018-05-06T20:04:49.890Z,5.20
2018-05-06T20:07:19.580Z,4.90
2018-05-06T20:09:49.416Z,4.40
2018-05-06T20:12:19.067Z,5.03
2018-05-06T20:14:48.698Z,5.60
2018-05-06T20:17:18.332Z,6.77
2018-05-06T20:19:47.960Z,7.47
2018-05-06T20:22:17.647Z,7.37
2018-05-06T20:24:46.994Z,7.07
2018-05-06T20:27:16.356Z,8.20
2018-05-06T20:29:46.036Z,7.93
2018-05-06T20:32:15.679Z,8.07
2018-05-06T20:34:45.032Z,7.37
2018-05-06T20:37:14.376Z,7.43
2018-05-06T20:39:43.762Z,7.70
2018-05-06T20:42:12.784Z,7.57
2018-05-06T20:44:42.155Z,7.27
2018-05-06T20:47:11.822Z,7.10
2018-05-06T20:49:41.180Z,7.43
2018-05-06T20:52:10.527Z,6.03
2018-05-06T20:54:39.880Z,5.50
2018-05-06T20:57:09.505Z,5.80
2018-05-06T20:59:39.035Z,6.63
2018-05-06T21:02:08.444Z,6.80
2018-05-06T21:04:37.819Z,6.47
2018-05-06T21:07:06.956Z,6.33
2018-05-06T21:09:36.595Z,6.93
2018-05-06T21:12:06.222Z,6.37
2018-05-06T21:14:35.846Z,6.73
2018-05-06T21:17:05.194Z,9.13
2018-05-06T21:19:34.820Z,9.00
2018-05-06T21:22:04.451Z,8.40
2018-05-06T21:24:34.076Z,7.90
2018-05-06T21:27:03.775Z,8.90
2018-05-06T21:29:33.448Z,8.40
2018-05-06T21:32:03.276Z,8.83
2018-05-06T21:34:32.939Z,6.53
2018-05-06T21:37:03.549Z,7.13
2018-05-06T21:39:33.419Z,6.50
2018-05-06T21:42:02.770Z,6.77
2018-05-06T21:44:32.412Z,7.30
2018-05-06T21:47:02.084Z,7.50
2018-05-06T21:49:31.889Z,7.00
2018-05-06T21:52:01.258Z,6.70
2018-05-06T21:54:30.979Z,6.73
2018-05-06T21:57:00.744Z,6.70
2018-05-06T21:59:30.407Z,6.40
2018-05-06T22:02:00.040Z,6.83
2018-05-06T22:04:29.699Z,6.87
2018-05-06T22:06:59.051Z,7.60
2018-05-06T22:09:28.203Z,6.90
2018-05-06T22:11:57.594Z,5.93
2018-05-06T22:14:27.233Z,5.97
2018-05-06T22:16:56.573Z,6.30
2018-05-06T22:19:25.954Z,6.20
2018-05-06T22:21:55.296Z,5.70
2018-05-06T22:24:24.998Z,7.10
2018-05-06T22:26:54.361Z,6.97
2018-05-06T22:29:23.994Z,6.23
2018-05-06T22:31:53.352Z,6.83
2018-05-06T22:34:22.992Z,6.60
2018-05-06T22:36:52.379Z,6.50
2018-05-06T22:39:21.724Z,6.53
2018-05-06T22:41:51.090Z,6.97
2018-05-06T22:44:20.461Z,7.20
2018-05-06T22:46:49.816Z,6.77
2018-05-06T22:49:19.219Z,6.67
2018-05-06T22:51:48.335Z,6.63
2018-05-06T22:54:17.829Z,6.67
2018-05-06T22:56:47.183Z,7.10
2018-05-06T22:59:16.586Z,6.33
2018-05-06T23:01:45.977Z,6.50
2018-05-06T23:04:15.613Z,6.97
2018-05-06T23:06:45.280Z,6.63
2018-05-06T23:09:14.913Z,7.07
2018-05-06T23:11:44.539Z,6.77
2018-05-06T23:14:14.158Z,6.67
2018-05-06T23:16:43.778Z,7.30
2018-05-06T23:19:13.472Z,6.53
2018-05-06T23:21:43.190Z,6.80
2018-05-06T23:24:12.653Z,6.03
2018-05-06T23:26:42.319Z,6.70
2018-05-06T23:29:11.628Z,6.23
2018-05-06T23:31:41.076Z,6.17
2018-05-06T23:34:10.744Z,5.50
2018-05-06T23:36:40.393Z,6.17
2018-05-06T23:39:10.022Z,5.90
2018-05-06T23:41:39.638Z,5.53
2018-05-06T23:44:09.299Z,6.00
2018-05-06T23:46:38.914Z,5.63
2018-05-06T23:49:08.823Z,5.97
2018-05-06T23:51:38.481Z,6.03
2018-05-06T23:54:08.142Z,7.00
2018-05-06T23:56:38.028Z,7.63
2018-05-06T23:59:07.666Z,5.97
